Terminal Aerodrome Forecast
Issued by NWS North Platte, NE

Home | Current Version | Previous Version | Text Only | Print | Product List | Glossary On
Versions: 1 2 3 4 5 6 7 8 9 10 11 12 13 14
000
FTUS43 KLBF 152300
TAFVTN
TAF
KVTN 152321Z 1600/1624 15006KT P6SM SKC
     FM161400 18008KT P6SM SCT015 BKN025
     FM161800 21009KT P6SM SCT025 BKN035
     FM162100 21007KT P6SM SCT050=

USA.gov is the U.S. government's official web portal to all federal, state and local government web resources and services.